createdAt,value
2019-04-14T00:02:31.879Z,50.57
2019-04-14T00:05:01.983Z,49.60
2019-04-14T00:07:30.466Z,44.80
2019-04-14T00:09:59.028Z,48.10
2019-04-14T00:12:27.523Z,45.40
2019-04-14T00:14:55.967Z,46.33
2019-04-14T00:17:24.406Z,45.80
2019-04-14T00:19:52.829Z,44.40
2019-04-14T00:22:21.240Z,47.47
2019-04-14T00:24:49.665Z,47.07
2019-04-14T00:27:19.206Z,47.03
2019-04-14T00:29:47.983Z,45.10
2019-04-14T00:32:16.402Z,50.43
2019-04-14T00:35:01.751Z,45.10
2019-04-14T00:37:31.899Z,49.13
2019-04-14T00:40:21.311Z,45.90
2019-04-14T00:42:53.984Z,44.63
2019-04-14T00:45:34.021Z,46.83
2019-04-14T00:48:03.379Z,49.43
2019-04-14T00:50:25.975Z,43.97
2019-04-14T00:52:54.548Z,49.67
2019-04-14T00:55:23.092Z,46.80
2019-04-14T00:57:51.475Z,48.20
2019-04-14T01:00:20.737Z,48.43
2019-04-14T01:02:51.492Z,47.60
2019-04-14T01:05:19.989Z,44.87
2019-04-14T01:07:48.421Z,48.37
2019-04-14T01:10:17.038Z,46.23
2019-04-14T01:12:45.483Z,45.03
2019-04-14T01:15:14.112Z,48.30
2019-04-14T01:17:43.781Z,49.97
2019-04-14T01:20:12.693Z,49.47
2019-04-14T01:22:42.327Z,48.13
2019-04-14T01:25:11.035Z,49.27
2019-04-14T01:27:40.559Z,45.97
2019-04-14T01:30:09.560Z,49.93
2019-04-14T01:32:37.946Z,49.67
2019-04-14T01:35:07.491Z,47.07
2019-04-14T01:37:35.921Z,49.10
2019-04-14T01:40:05.948Z,48.03
2019-04-14T01:42:35.523Z,51.47
2019-04-14T01:45:05.781Z,47.50
2019-04-14T01:47:34.172Z,48.53
2019-04-14T01:50:03.738Z,49.17
2019-04-14T01:52:34.164Z,52.53
2019-04-14T01:55:17.672Z,52.30
2019-04-14T01:57:50.592Z,50.23
2019-04-14T02:00:20.920Z,49.00
2019-04-14T02:02:49.283Z,50.43
2019-04-14T02:05:21.388Z,51.57
2019-04-14T02:07:49.815Z,48.50
2019-04-14T02:10:19.381Z,51.10
2019-04-14T02:12:47.806Z,53.63
2019-04-14T02:15:20.054Z,49.83
2019-04-14T02:55:30.005Z,54.37
2019-04-14T02:57:45.021Z,52.30
2019-04-14T03:00:23.915Z,49.67
2019-04-14T03:02:42.593Z,55.23
2019-04-14T03:10:29.863Z,57.90
2019-04-14T03:12:46.486Z,54.20
2019-04-14T03:15:17.061Z,53.07
2019-04-14T03:18:12.196Z,53.13
2019-04-14T03:20:33.996Z,53.27
2019-04-14T03:23:19.163Z,54.90
2019-04-14T03:25:43.289Z,56.07
2019-04-14T03:28:28.305Z,53.63
2019-04-14T03:31:31.663Z,53.50
2019-04-14T03:38:34.457Z,52.87
2019-04-14T03:41:08.713Z,54.37
2019-04-14T03:43:38.684Z,56.47
2019-04-14T03:46:09.139Z,59.80
2019-04-14T03:51:13.754Z,58.23
2019-04-14T03:55:55.506Z,56.30
2019-04-14T03:58:20.526Z,54.03
2019-04-14T04:00:49.281Z,52.87
2019-04-14T04:03:17.699Z,53.03
2019-04-14T04:05:46.104Z,57.27
2019-04-14T04:08:15.715Z,54.60
2019-04-14T04:10:51.225Z,56.00
2019-04-14T04:13:19.613Z,57.17
2019-04-14T04:15:49.752Z,55.67
2019-04-14T04:18:19.955Z,55.23
2019-04-14T04:20:52.593Z,57.33
2019-04-14T04:23:42.377Z,53.97
2019-04-14T04:26:12.676Z,55.40
2019-04-14T04:29:00.647Z,55.77
2019-04-14T04:31:37.407Z,60.60
2019-04-14T04:34:25.012Z,58.67
2019-04-14T04:37:04.042Z,57.37
2019-04-14T04:39:36.445Z,58.37
2019-04-14T04:42:04.821Z,58.23
2019-04-14T04:44:33.502Z,55.97
2019-04-14T04:47:01.872Z,56.57
2019-04-14T04:49:31.311Z,58.47
2019-04-14T04:52:00.377Z,58.33
2019-04-14T04:54:30.014Z,59.30
2019-04-14T04:56:58.447Z,60.60
2019-04-14T04:59:27.764Z,59.90
2019-04-14T05:01:56.147Z,54.70
2019-04-14T05:04:24.533Z,59.13
2019-04-14T05:07:01.545Z,56.60
2019-04-14T05:09:36.207Z,57.63
2019-04-14T05:12:10.994Z,59.20
2019-04-14T05:14:44.063Z,58.23
2019-04-14T05:17:14.813Z,55.93
2019-04-14T05:19:43.618Z,58.57
2019-04-14T05:22:14.802Z,65.20
2019-04-14T05:24:42.127Z,56.27
2019-04-14T05:27:10.531Z,58.40
2019-04-14T05:29:38.914Z,59.07
2019-04-14T05:32:07.297Z,60.80
2019-04-14T05:34:36.705Z,56.73
2019-04-14T05:37:05.285Z,54.47
2019-04-14T05:39:33.666Z,56.90
2019-04-14T05:42:09.471Z,61.40
2019-04-14T05:44:32.170Z,56.13
2019-04-14T05:47:00.558Z,60.80
2019-04-14T05:49:37.849Z,58.37
2019-04-14T05:51:59.211Z,59.63
2019-04-14T05:54:27.625Z,56.83
2019-04-14T05:56:56.010Z,57.73
2019-04-14T05:59:24.400Z,55.90
2019-04-14T06:01:52.797Z,59.23
2019-04-14T06:04:22.177Z,61.93
2019-04-14T06:06:50.551Z,63.43
2019-04-14T06:09:18.944Z,58.10
2019-04-14T06:11:47.340Z,62.60
2019-04-14T06:14:15.729Z,57.30
2019-04-14T06:16:44.116Z,59.33
2019-04-14T06:19:12.508Z,60.63
2019-04-14T06:21:40.905Z,58.20
2019-04-14T06:24:09.295Z,58.57
2019-04-14T06:26:37.821Z,59.90
2019-04-14T06:29:06.271Z,60.17
2019-04-14T06:31:39.319Z,60.13
2019-04-14T06:34:12.404Z,56.87
2019-04-14T06:36:42.392Z,59.23
2019-04-14T06:39:30.188Z,59.13
2019-04-14T06:41:58.574Z,59.90
2019-04-14T06:44:26.984Z,59.87
2019-04-14T06:46:55.386Z,62.63
2019-04-14T06:49:23.785Z,61.43
2019-04-14T06:51:52.173Z,61.37
2019-04-14T06:54:20.615Z,68.17
2019-04-14T06:56:49.038Z,60.90
2019-04-14T06:59:17.470Z,60.40
2019-04-14T07:01:45.859Z,60.43
2019-04-14T07:04:14.257Z,60.17
2019-04-14T07:06:42.640Z,62.43
2019-04-14T07:09:11.047Z,59.03
2019-04-14T07:11:39.437Z,59.33
2019-04-14T07:14:07.829Z,57.80
2019-04-14T07:16:36.284Z,59.00
2019-04-14T07:19:04.758Z,59.03
2019-04-14T07:21:33.152Z,62.53
2019-04-14T07:24:01.620Z,58.27
2019-04-14T07:26:30.016Z,62.17
2019-04-14T07:28:58.390Z,57.40
2019-04-14T07:31:37.187Z,58.50
2019-04-14T07:34:22.192Z,66.40
2019-04-14T07:36:58.400Z,56.80
2019-04-14T07:39:40.682Z,60.60
2019-04-14T07:42:22.334Z,58.47
2019-04-14T07:45:04.282Z,57.40
2019-04-14T07:47:40.362Z,58.40
2019-04-14T07:50:28.878Z,61.77
2019-04-14T07:52:58.913Z,61.13
2019-04-14T07:55:41.263Z,58.77
2019-04-14T07:58:27.831Z,58.83
2019-04-14T08:00:57.858Z,59.07
2019-04-14T08:03:27.921Z,55.70
2019-04-14T08:05:56.313Z,56.87
2019-04-14T08:08:24.704Z,56.33
2019-04-14T08:10:53.108Z,56.63
2019-04-14T08:13:21.498Z,60.17
2019-04-14T08:15:49.886Z,55.63
2019-04-14T08:18:18.311Z,51.70
2019-04-14T08:20:46.697Z,53.60
2019-04-14T08:23:15.079Z,52.40
2019-04-14T08:25:43.479Z,51.67
2019-04-14T08:28:11.860Z,52.17
2019-04-14T08:30:40.256Z,50.80
2019-04-14T08:33:08.639Z,51.90
2019-04-14T08:35:37.105Z,52.20
2019-04-14T08:38:05.494Z,52.60
2019-04-14T08:40:33.879Z,50.73
2019-04-14T08:43:21.920Z,50.93
2019-04-14T08:46:03.618Z,47.63
2019-04-14T08:48:48.643Z,52.00
2019-04-14T08:51:21.424Z,49.70
2019-04-14T08:54:03.524Z,51.43
2019-04-14T08:56:45.456Z,53.23
2019-04-14T08:59:31.593Z,48.07
2019-04-14T09:02:01.630Z,48.83
2019-04-14T09:04:31.666Z,49.10
2019-04-14T09:07:01.706Z,48.93
2019-04-14T09:09:31.740Z,47.57
2019-04-14T09:12:14.505Z,51.57
2019-04-14T09:14:31.911Z,51.10
2019-04-14T09:17:00.304Z,46.30
2019-04-14T09:19:28.696Z,48.70
2019-04-14T09:21:57.081Z,46.90
2019-04-14T09:24:25.471Z,51.20
2019-04-14T09:26:53.864Z,47.53
2019-04-14T09:29:22.283Z,46.23
2019-04-14T09:31:50.946Z,44.97
2019-04-14T09:34:19.347Z,45.80
2019-04-14T09:36:47.761Z,44.93
2019-04-14T09:39:16.143Z,46.13
2019-04-14T09:41:44.532Z,43.67
2019-04-14T09:44:12.924Z,44.33
2019-04-14T09:46:41.324Z,43.03
2019-04-14T09:49:09.779Z,49.50
2019-04-14T09:51:38.173Z,47.17
2019-04-14T09:54:07.526Z,41.70
2019-04-14T09:56:35.923Z,41.00
2019-04-14T09:59:04.379Z,41.40
2019-04-14T10:01:32.775Z,41.90
2019-04-14T10:04:01.176Z,40.77
2019-04-14T10:06:30.539Z,44.73
2019-04-14T10:08:58.927Z,41.20
2019-04-14T10:11:28.215Z,42.17
2019-04-14T10:13:56.627Z,40.03
2019-04-14T10:16:25.005Z,41.13
2019-04-14T10:18:53.391Z,38.17
2019-04-14T10:21:21.779Z,40.60
2019-04-14T10:23:50.174Z,36.87
2019-04-14T10:26:19.519Z,36.47
2019-04-14T10:28:50.817Z,38.93
2019-04-14T10:31:19.422Z,38.73
2019-04-14T10:33:47.816Z,40.00
2019-04-14T10:36:16.198Z,40.13
2019-04-14T10:38:44.583Z,39.27
2019-04-14T10:41:12.989Z,38.00
2019-04-14T10:43:41.402Z,36.57
2019-04-14T10:46:09.780Z,37.80
2019-04-14T10:48:38.205Z,36.63
2019-04-14T10:51:06.588Z,37.67
2019-04-14T10:53:35.008Z,41.60
2019-04-14T10:56:03.387Z,38.67
2019-04-14T10:58:31.780Z,39.23
2019-04-14T11:01:00.169Z,39.77
2019-04-14T11:03:28.558Z,39.17
2019-04-14T11:06:04.789Z,38.47
2019-04-14T11:08:33.190Z,36.07
2019-04-14T11:11:01.581Z,37.37
2019-04-14T11:13:29.967Z,40.40
2019-04-14T11:15:58.369Z,38.97
2019-04-14T11:18:26.751Z,40.07
2019-04-14T11:20:55.144Z,36.40
2019-04-14T11:23:23.535Z,39.10
2019-04-14T11:25:51.924Z,38.90
2019-04-14T11:28:20.317Z,38.63
2019-04-14T11:30:48.772Z,37.87
2019-04-14T11:33:18.810Z,37.60
2019-04-14T11:36:00.757Z,37.87
2019-04-14T11:38:30.784Z,37.53
2019-04-14T11:41:03.464Z,36.93
2019-04-14T11:43:31.849Z,37.40
2019-04-14T11:46:03.558Z,41.90
2019-04-14T11:48:31.636Z,37.00
2019-04-14T11:51:00.028Z,40.83
2019-04-14T11:53:28.483Z,38.27
2019-04-14T11:55:56.876Z,37.83
2019-04-14T11:58:25.276Z,39.57
2019-04-14T12:01:13.589Z,38.67
2019-04-14T12:03:43.687Z,37.13
2019-04-14T12:06:19.460Z,37.80
2019-04-14T12:08:49.486Z,37.83
2019-04-14T12:11:17.887Z,39.87
2019-04-14T12:13:46.273Z,36.23
2019-04-14T12:16:14.688Z,36.03
2019-04-14T12:18:43.153Z,37.03
2019-04-14T12:21:11.548Z,34.43
2019-04-14T12:23:39.960Z,36.63
2019-04-14T12:26:08.404Z,37.90
2019-04-14T12:28:38.234Z,37.17
2019-04-14T12:31:08.630Z,34.80
2019-04-14T12:33:37.166Z,34.50
2019-04-14T12:36:08.611Z,35.23
2019-04-14T12:38:37.123Z,34.40
2019-04-14T12:41:08.232Z,34.73
2019-04-14T12:43:38.410Z,38.17
2019-04-14T12:46:24.494Z,36.70
2019-04-14T12:48:56.945Z,33.23
2019-04-14T12:51:41.908Z,34.00
2019-04-14T12:54:10.294Z,38.10
2019-04-14T12:56:38.697Z,34.90
2019-04-14T12:59:08.829Z,33.70
2019-04-14T13:01:38.864Z,35.50
2019-04-14T13:04:07.252Z,36.33
2019-04-14T13:06:35.771Z,39.37
2019-04-14T13:09:08.250Z,33.47
2019-04-14T13:11:36.711Z,36.70
2019-04-14T13:14:05.110Z,33.67
2019-04-14T13:16:33.508Z,34.43
2019-04-14T13:19:02.035Z,33.40
2019-04-14T13:21:30.437Z,32.47
2019-04-14T13:23:58.887Z,31.93
2019-04-14T13:26:27.293Z,37.93
2019-04-14T13:28:55.684Z,33.17
2019-04-14T13:31:24.161Z,32.13
2019-04-14T13:33:54.887Z,35.83
2019-04-14T13:36:22.952Z,33.33
2019-04-14T13:38:51.343Z,34.03
2019-04-14T13:41:19.759Z,35.90
2019-04-14T13:43:48.141Z,33.40
2019-04-14T13:46:16.532Z,33.53
2019-04-14T13:48:44.919Z,34.20
2019-04-14T13:51:13.345Z,32.27
2019-04-14T13:53:41.743Z,31.70
2019-04-14T13:56:10.147Z,33.70
2019-04-14T13:58:40.799Z,33.60
2019-04-14T14:01:08.641Z,31.13
2019-04-14T14:03:37.034Z,29.50
2019-04-14T14:06:05.491Z,31.33
2019-04-14T14:08:33.960Z,29.37
2019-04-14T14:11:03.991Z,30.70
2019-04-14T14:13:34.026Z,31.23
2019-04-14T14:16:07.244Z,32.33
2019-04-14T14:18:37.275Z,32.97
2019-04-14T14:21:10.352Z,32.63
2019-04-14T14:23:55.194Z,32.17
2019-04-14T14:26:27.906Z,32.13
2019-04-14T14:28:56.314Z,32.83
2019-04-14T14:31:24.873Z,33.40
2019-04-14T14:33:53.261Z,34.77
2019-04-14T14:36:22.597Z,34.43
2019-04-14T14:38:50.998Z,34.10
2019-04-14T14:41:19.379Z,35.37
2019-04-14T14:43:47.778Z,32.83
2019-04-14T14:46:17.850Z,32.23
2019-04-14T14:48:47.826Z,33.50
2019-04-14T14:51:29.455Z,33.00
2019-04-14T14:53:57.846Z,34.93
2019-04-14T14:56:27.227Z,30.73
2019-04-14T14:58:55.614Z,34.20
2019-04-14T15:01:24.004Z,32.97
2019-04-14T15:03:52.400Z,33.27
2019-04-14T15:06:20.792Z,35.30
2019-04-14T15:08:49.184Z,35.03
2019-04-14T15:11:17.576Z,32.50
2019-04-14T15:13:45.967Z,32.97
2019-04-14T15:16:14.363Z,31.37
2019-04-14T15:18:42.754Z,32.97
2019-04-14T15:21:11.146Z,32.97
2019-04-14T15:23:39.545Z,32.83
2019-04-14T15:26:07.937Z,31.37
2019-04-14T15:28:36.321Z,32.33
2019-04-14T15:31:04.739Z,38.87
2019-04-14T15:33:33.129Z,34.57
2019-04-14T15:36:01.528Z,31.67
2019-04-14T15:38:29.911Z,34.60
2019-04-14T15:40:58.380Z,33.03
2019-04-14T15:43:26.770Z,30.50
2019-04-14T15:45:55.162Z,30.83
2019-04-14T15:48:23.554Z,31.27
2019-04-14T15:50:51.952Z,31.13
2019-04-14T15:53:20.340Z,31.90
2019-04-14T15:55:48.745Z,30.87
2019-04-14T16:01:26.133Z,33.43
2019-04-14T16:03:58.567Z,31.60
2019-04-14T16:06:39.738Z,31.70
2019-04-14T16:09:12.447Z,32.70
2019-04-14T16:11:51.641Z,33.10
2019-04-14T16:14:21.663Z,30.57
2019-04-14T16:16:57.803Z,34.10
2019-04-14T16:19:45.841Z,32.20
2019-04-14T16:22:14.229Z,33.43
2019-04-14T16:24:42.624Z,33.53
2019-04-14T16:27:21.362Z,33.37
2019-04-14T16:29:53.799Z,34.83
2019-04-14T16:32:23.839Z,34.40
2019-04-14T16:34:53.870Z,34.70
2019-04-14T16:37:22.267Z,33.47
2019-04-14T16:39:50.651Z,31.97
2019-04-14T16:42:19.114Z,34.73
2019-04-14T16:44:47.515Z,33.80
2019-04-14T16:47:15.899Z,37.53
2019-04-14T16:49:44.283Z,33.00
2019-04-14T16:52:14.875Z,39.30
2019-04-14T16:54:47.874Z,36.33
2019-04-14T16:57:34.086Z,37.45
2019-04-14T17:00:02.839Z,36.10
2019-04-14T17:02:31.283Z,37.83
2019-04-14T17:04:59.670Z,38.93
2019-04-14T17:07:28.067Z,35.57
2019-04-14T17:09:56.443Z,38.97
2019-04-14T17:12:24.830Z,39.07
2019-04-14T17:14:54.881Z,37.80
2019-04-14T17:17:25.008Z,36.90
2019-04-14T17:19:57.188Z,38.07
2019-04-14T17:22:26.840Z,39.63
2019-04-14T17:25:08.486Z,37.57
2019-04-14T17:27:50.597Z,37.00
2019-04-14T17:30:23.689Z,35.27
2019-04-14T17:32:59.409Z,37.70
2019-04-14T17:35:44.571Z,37.50
2019-04-14T17:38:17.568Z,37.83
2019-04-14T17:40:47.592Z,38.57
2019-04-14T17:43:23.557Z,36.03
2019-04-14T17:46:09.446Z,37.00
2019-04-14T17:48:54.315Z,42.13
2019-04-14T17:51:27.112Z,36.70
2019-04-14T17:54:00.119Z,39.23
2019-04-14T17:56:35.859Z,38.73
2019-04-14T17:59:05.883Z,37.23
2019-04-14T18:01:41.962Z,36.50
2019-04-14T18:04:26.903Z,34.23
2019-04-14T18:07:06.063Z,35.80
2019-04-14T18:09:36.097Z,35.53
2019-04-14T18:12:09.287Z,36.27
2019-04-14T18:14:42.034Z,34.60
2019-04-14T18:17:12.062Z,35.67
2019-04-14T18:19:57.499Z,35.70
2019-04-14T18:22:25.872Z,36.77
2019-04-14T18:24:54.264Z,36.80
2019-04-14T18:27:22.650Z,36.90
2019-04-14T18:29:52.683Z,37.43
2019-04-14T18:32:34.358Z,41.13
2019-04-14T18:35:13.268Z,39.00
2019-04-14T18:37:59.434Z,40.03
2019-04-14T18:40:35.483Z,40.37
2019-04-14T18:43:05.584Z,41.73
2019-04-14T18:45:35.610Z,40.15
2019-04-14T18:48:14.871Z,40.23
2019-04-14T18:50:44.953Z,43.43
2019-04-14T18:53:30.856Z,39.73
2019-04-14T18:56:11.213Z,41.40
2019-04-14T18:59:00.972Z,46.90
2019-04-14T19:01:31.005Z,45.60
2019-04-14T19:04:02.241Z,43.50
2019-04-14T19:06:30.430Z,46.03
2019-04-14T19:08:58.824Z,45.27
2019-04-14T19:11:37.631Z,46.83
2019-04-14T19:14:07.751Z,48.98
2019-04-14T19:16:40.538Z,46.33
2019-04-14T19:19:10.287Z,50.00
2019-04-14T19:21:38.679Z,50.67
2019-04-14T19:24:07.073Z,49.67
2019-04-14T19:26:35.478Z,49.87
2019-04-14T19:29:03.872Z,46.90
2019-04-14T19:31:33.261Z,50.17
2019-04-14T19:34:01.657Z,52.97
2019-04-14T19:36:30.043Z,49.40
2019-04-14T19:38:58.426Z,50.67
2019-04-14T19:41:26.824Z,54.93
2019-04-14T19:43:55.204Z,52.67
2019-04-14T19:46:23.598Z,53.67
2019-04-14T19:48:52.089Z,56.83
2019-04-14T19:51:20.441Z,56.43
2019-04-14T19:53:48.856Z,56.10
2019-04-14T19:56:17.282Z,55.90
2019-04-14T19:58:46.665Z,55.30
2019-04-14T20:01:15.127Z,58.50
2019-04-14T20:03:44.576Z,57.83
2019-04-14T20:06:12.972Z,54.67
2019-04-14T20:08:41.361Z,56.33
2019-04-14T20:11:09.751Z,58.40
2019-04-14T20:13:39.786Z,57.00
2019-04-14T20:16:26.361Z,59.03
2019-04-14T20:19:10.362Z,60.07
2019-04-14T20:21:45.282Z,62.53
2019-04-14T20:24:18.200Z,57.57
2019-04-14T20:26:50.917Z,59.30
2019-04-14T20:29:20.942Z,60.73
2019-04-14T20:31:51.950Z,62.00
2019-04-14T20:34:20.342Z,60.87
2019-04-14T20:36:48.728Z,63.83
2019-04-14T20:39:18.294Z,65.57
2019-04-14T20:41:46.769Z,65.23
2019-04-14T20:44:15.606Z,68.80
2019-04-14T20:46:44.068Z,68.30
2019-04-14T20:49:12.591Z,67.10
2019-04-14T20:51:40.977Z,71.43
2019-04-14T20:54:09.363Z,69.07
2019-04-14T20:56:37.828Z,71.77
2019-04-14T20:59:06.246Z,70.37
2019-04-14T21:01:36.279Z,73.90
2019-04-14T21:04:18.639Z,74.70
2019-04-14T21:07:04.912Z,75.33
2019-04-14T21:09:37.867Z,73.53
2019-04-14T21:12:13.800Z,75.07
2019-04-14T21:14:59.908Z,79.37
2019-04-14T21:17:38.616Z,76.20
2019-04-14T21:20:32.602Z,80.63
2019-04-14T21:23:05.339Z,76.67
2019-04-14T21:25:35.373Z,78.73
2019-04-14T21:28:23.877Z,80.67
2019-04-14T21:31:10.567Z,78.50
2019-04-14T21:33:49.505Z,76.40
2019-04-14T21:36:25.390Z,80.67
2019-04-14T21:39:11.844Z,76.37
2019-04-14T21:41:41.879Z,80.33
2019-04-14T21:44:10.279Z,84.20
2019-04-14T21:46:38.669Z,77.47
2019-04-14T21:49:07.059Z,83.57
2019-04-14T21:51:48.945Z,82.13
2019-04-14T21:54:18.114Z,80.30
2019-04-14T21:56:48.161Z,81.07
2019-04-14T21:59:24.421Z,83.50
2019-04-14T22:02:11.091Z,81.50
2019-04-14T22:04:41.193Z,85.57
2019-04-14T22:07:23.029Z,80.27
2019-04-14T22:09:52.588Z,86.33
2019-04-14T22:12:20.980Z,80.17
2019-04-14T22:14:49.369Z,84.53
2019-04-14T22:17:17.760Z,78.20
2019-04-14T22:19:46.155Z,82.53
2019-04-14T22:22:14.538Z,81.27
2019-04-14T22:24:43.096Z,81.70
2019-04-14T22:27:11.526Z,83.00
2019-04-14T22:29:39.873Z,80.07
2019-04-14T22:32:08.261Z,79.87
2019-04-14T22:34:36.715Z,80.63
2019-04-14T22:37:05.181Z,76.20
2019-04-14T22:39:33.574Z,81.07
2019-04-14T22:42:01.962Z,81.20
2019-04-14T22:44:30.428Z,79.53
2019-04-14T22:46:58.819Z,78.97
2019-04-14T22:49:27.216Z,78.37
2019-04-14T22:51:55.593Z,77.30
2019-04-14T22:54:24.027Z,73.80
2019-04-14T22:56:52.414Z,79.43
2019-04-14T22:59:20.810Z,79.17
2019-04-14T23:01:50.835Z,81.93
2019-04-14T23:04:29.485Z,80.37
2019-04-14T23:06:59.521Z,75.13
2019-04-14T23:09:29.549Z,79.13
2019-04-14T23:12:05.371Z,77.43
2019-04-14T23:14:35.408Z,78.77
2019-04-14T23:17:14.375Z,75.80
2019-04-14T23:19:56.346Z,77.13
2019-04-14T23:22:29.115Z,74.63
2019-04-14T23:24:57.506Z,73.63
2019-04-14T23:27:25.964Z,73.40
2019-04-14T23:29:54.354Z,73.53
2019-04-14T23:32:22.747Z,82.43
2019-04-14T23:34:51.127Z,74.27
2019-04-14T23:37:19.514Z,74.13
2019-04-14T23:39:47.914Z,71.27
2019-04-14T23:42:16.310Z,72.13
2019-04-14T23:44:44.699Z,71.83
2019-04-14T23:47:13.170Z,72.57
2019-04-14T23:49:41.557Z,74.27
2019-04-14T23:52:09.941Z,70.40
2019-04-14T23:54:38.404Z,70.03
2019-04-14T23:57:06.978Z,74.37
2019-04-14T23:59:35.361Z,76.43
